createdAt,value
2019-01-21T00:02:14.945Z,27.83
2019-01-21T00:04:40.852Z,28.93
2019-01-21T00:07:06.725Z,27.73
2019-01-21T00:09:32.649Z,28.03
2019-01-21T00:11:58.529Z,28.20
2019-01-21T00:14:24.439Z,27.17
2019-01-21T00:16:50.363Z,27.23
2019-01-21T00:19:16.347Z,26.17
2019-01-21T00:21:42.250Z,28.67
2019-01-21T00:24:08.181Z,27.40
2019-01-21T00:26:34.077Z,27.83
2019-01-21T00:28:59.952Z,27.53
2019-01-21T00:31:25.846Z,27.57
2019-01-21T00:33:51.716Z,28.77
2019-01-21T00:36:17.659Z,26.37
2019-01-21T00:38:43.544Z,27.07
2019-01-21T00:41:09.422Z,26.90
2019-01-21T00:43:35.868Z,27.37
2019-01-21T00:46:01.742Z,27.00
2019-01-21T00:48:27.678Z,26.67
2019-01-21T00:50:53.596Z,25.17
2019-01-21T00:53:19.482Z,26.10
2019-01-21T00:55:46.218Z,27.80
2019-01-21T00:58:12.085Z,27.50
2019-01-21T01:00:38.598Z,26.53
2019-01-21T01:03:04.505Z,28.13
2019-01-21T01:05:30.483Z,26.77
2019-01-21T01:07:56.410Z,27.23
2019-01-21T01:10:22.306Z,28.33
2019-01-21T01:12:48.175Z,28.17
2019-01-21T01:15:14.121Z,27.37
2019-01-21T01:17:44.987Z,27.43
2019-01-21T01:20:16.037Z,27.50
2019-01-21T01:22:41.917Z,28.30
2019-01-21T01:25:08.139Z,27.53
2019-01-21T01:27:34.011Z,27.70
2019-01-21T01:29:59.957Z,27.33
2019-01-21T01:32:25.869Z,27.40
2019-01-21T01:34:51.739Z,25.63
2019-01-21T01:37:17.675Z,25.83
2019-01-21T01:39:43.548Z,26.43
2019-01-21T01:42:09.455Z,25.70
2019-01-21T01:44:35.326Z,27.10
2019-01-21T01:47:01.243Z,25.77
2019-01-21T01:49:27.148Z,25.83
2019-01-21T01:51:53.179Z,25.63
2019-01-21T01:54:19.155Z,26.40
2019-01-21T01:56:45.068Z,25.33
2019-01-21T01:59:11.076Z,26.17
2019-01-21T02:01:36.966Z,24.70
2019-01-21T02:04:03.042Z,27.63
2019-01-21T02:06:28.910Z,26.07
2019-01-21T02:08:55.116Z,25.87
2019-01-21T02:11:20.990Z,25.70
2019-01-21T02:13:46.894Z,27.10
2019-01-21T02:16:12.905Z,27.37
2019-01-21T02:18:38.969Z,27.47
2019-01-21T02:21:04.827Z,27.70
2019-01-21T02:23:35.241Z,28.63
2019-01-21T02:26:01.554Z,27.77
2019-01-21T02:28:34.195Z,27.77
2019-01-21T02:31:20.591Z,26.60
2019-01-21T02:34:13.009Z,25.70
2019-01-21T02:37:11.828Z,26.07
2019-01-21T02:39:47.443Z,26.17
2019-01-21T02:42:17.147Z,24.93
2019-01-21T02:44:49.596Z,23.83
2019-01-21T02:47:22.320Z,26.13
2019-01-21T02:50:10.035Z,25.50
2019-01-21T02:52:48.503Z,27.07
2019-01-21T02:55:33.553Z,26.23
2019-01-21T02:58:20.483Z,25.33
2019-01-21T03:01:02.505Z,25.80
2019-01-21T03:03:38.203Z,25.50
2019-01-21T03:06:13.637Z,26.23
2019-01-21T03:08:59.819Z,24.37
2019-01-21T03:11:44.594Z,26.53
2019-01-21T03:14:14.290Z,24.47
2019-01-21T03:16:46.834Z,24.97
2019-01-21T03:19:22.880Z,24.87
2019-01-21T03:22:28.303Z,25.03
2019-01-21T03:25:14.421Z,24.83
2019-01-21T03:28:13.240Z,25.87
2019-01-21T03:30:51.833Z,25.80
2019-01-21T03:33:36.719Z,24.80
2019-01-21T03:36:06.430Z,25.60
2019-01-21T03:38:36.104Z,24.97
2019-01-21T03:41:06.215Z,25.27
2019-01-21T03:43:54.008Z,24.57
2019-01-21T03:46:59.211Z,25.33
2019-01-21T03:49:50.190Z,24.20
2019-01-21T03:52:42.470Z,23.07
2019-01-21T03:55:11.491Z,24.90
2019-01-21T03:57:41.207Z,22.70
2019-01-21T04:00:26.215Z,21.67
2019-01-21T04:03:15.238Z,24.80
2019-01-21T04:05:56.869Z,23.67
2019-01-21T04:08:46.644Z,24.47
2019-01-21T04:11:22.474Z,24.17
2019-01-21T04:14:04.553Z,24.17
2019-01-21T04:16:34.310Z,24.53
2019-01-21T04:19:18.626Z,23.90
2019-01-21T04:21:57.243Z,24.10
2019-01-21T04:24:27.020Z,25.13
2019-01-21T04:26:59.506Z,23.20
2019-01-21T04:29:49.143Z,23.23
2019-01-21T04:32:28.012Z,23.63
2019-01-21T04:35:12.723Z,22.60
2019-01-21T04:37:48.594Z,23.10
2019-01-21T04:40:21.041Z,23.27
2019-01-21T04:43:10.190Z,23.53
2019-01-21T04:45:43.142Z,22.43
2019-01-21T04:48:33.019Z,21.77
2019-01-21T04:51:24.101Z,22.93
2019-01-21T04:53:56.515Z,23.23
2019-01-21T04:56:34.567Z,23.97
2019-01-21T04:59:26.942Z,23.83
2019-01-21T05:02:02.219Z,21.47
2019-01-21T05:04:34.947Z,23.20
2019-01-21T05:07:24.549Z,24.17
2019-01-21T05:09:59.876Z,23.40
2019-01-21T05:12:38.884Z,22.63
2019-01-21T05:15:26.732Z,22.80
2019-01-21T05:18:05.496Z,22.87
2019-01-21T05:20:47.399Z,24.87
2019-01-21T05:23:26.291Z,23.60
2019-01-21T05:26:01.951Z,22.97
2019-01-21T05:28:46.794Z,24.27
2019-01-21T05:31:37.681Z,24.07
2019-01-21T05:34:13.337Z,24.07
2019-01-21T05:36:55.286Z,24.97
2019-01-21T05:39:40.351Z,24.80
2019-01-21T05:42:28.152Z,23.70
2019-01-21T05:45:13.155Z,24.53
2019-01-21T05:47:45.681Z,23.80
2019-01-21T05:50:21.369Z,23.97
2019-01-21T05:52:57.101Z,24.33
2019-01-21T05:55:45.336Z,22.73
2019-01-21T05:58:46.392Z,24.60
2019-01-21T06:01:28.428Z,23.63
2019-01-21T06:04:04.138Z,22.30
2019-01-21T06:06:54.019Z,24.10
2019-01-21T06:09:26.727Z,22.70
2019-01-21T06:12:17.676Z,22.13
2019-01-21T06:14:58.878Z,23.93
2019-01-21T06:17:31.164Z,24.07
2019-01-21T06:20:30.030Z,23.70
2019-01-21T06:23:05.197Z,23.60
2019-01-21T06:25:56.475Z,24.23
2019-01-21T06:28:35.206Z,23.70
2019-01-21T06:31:10.994Z,23.77
2019-01-21T06:33:47.020Z,23.87
2019-01-21T06:36:25.793Z,22.67
2019-01-21T06:39:10.467Z,23.47
2019-01-21T06:41:46.017Z,22.43
2019-01-21T06:44:39.725Z,24.07
2019-01-21T06:47:18.428Z,22.60
2019-01-21T06:50:06.231Z,23.00
2019-01-21T06:53:01.661Z,23.60
2019-01-21T06:55:34.054Z,22.43
2019-01-21T06:58:03.815Z,24.80
2019-01-21T07:00:36.370Z,23.87
2019-01-21T07:03:12.149Z,24.20
2019-01-21T07:05:56.727Z,24.50
2019-01-21T07:08:47.451Z,26.13
2019-01-21T07:11:38.429Z,26.37
2019-01-21T07:14:28.837Z,22.87
2019-01-21T07:17:07.745Z,25.77
2019-01-21T07:19:59.038Z,23.40
2019-01-21T07:22:37.847Z,21.87
2019-01-21T07:25:07.583Z,23.10
2019-01-21T07:27:52.573Z,20.70
2019-01-21T07:30:39.149Z,29.90
2019-01-21T07:33:23.681Z,34.27
2019-01-21T07:36:02.237Z,30.40
2019-01-21T07:38:35.171Z,33.33
2019-01-21T07:41:16.486Z,34.10
2019-01-21T07:43:58.108Z,37.10
2019-01-21T07:46:52.040Z,38.07
2019-01-21T07:49:49.457Z,39.00
2019-01-21T07:52:35.973Z,36.53
2019-01-21T07:55:17.911Z,34.53
2019-01-21T07:58:04.390Z,36.63
2019-01-21T08:00:49.544Z,34.80
2019-01-21T08:03:34.490Z,35.07
2019-01-21T08:06:24.113Z,34.90
2019-01-21T08:09:06.114Z,30.30
2019-01-21T08:11:53.953Z,29.87
2019-01-21T08:14:23.684Z,28.07
2019-01-21T08:17:14.052Z,30.67
2019-01-21T08:19:43.858Z,30.47
2019-01-21T08:22:25.930Z,30.23
2019-01-21T08:25:04.235Z,29.33
2019-01-21T08:27:52.028Z,27.50
2019-01-21T08:30:27.271Z,27.10
2019-01-21T08:33:17.093Z,28.60
2019-01-21T08:35:58.353Z,28.40
2019-01-21T08:38:31.421Z,27.57
2019-01-21T08:41:24.211Z,27.90
2019-01-21T08:44:13.311Z,27.87
2019-01-21T08:46:46.047Z,29.63
2019-01-21T08:49:21.947Z,25.40
2019-01-21T08:52:12.415Z,28.27
2019-01-21T08:54:47.883Z,31.27
2019-01-21T08:57:26.625Z,29.57
2019-01-21T08:59:59.078Z,31.07
2019-01-21T09:02:31.818Z,30.13
2019-01-21T09:05:10.361Z,29.43
2019-01-21T09:07:45.951Z,31.63
2019-01-21T09:10:44.817Z,30.00
2019-01-21T09:13:20.336Z,27.77
2019-01-21T09:16:13.875Z,27.57
2019-01-21T09:18:46.192Z,28.13
2019-01-21T09:21:21.704Z,29.87
2019-01-21T09:24:11.328Z,29.77
2019-01-21T09:26:46.629Z,29.13
2019-01-21T09:29:25.330Z,29.67
2019-01-21T09:32:14.516Z,28.23
2019-01-21T09:34:50.101Z,26.43
2019-01-21T09:37:22.960Z,26.50
2019-01-21T09:39:55.843Z,26.73
2019-01-21T09:42:28.279Z,27.93
2019-01-21T09:45:06.627Z,26.53
2019-01-21T09:47:32.290Z,26.37
2019-01-21T09:49:58.158Z,26.20
2019-01-21T09:52:24.074Z,26.27
2019-01-21T09:54:50.365Z,25.60
2019-01-21T09:57:16.590Z,26.23
2019-01-21T09:59:42.604Z,25.73
2019-01-21T10:02:08.529Z,26.27
2019-01-21T10:04:38.057Z,25.40
2019-01-21T10:07:22.833Z,25.00
2019-01-21T10:09:55.752Z,25.03
2019-01-21T10:12:54.687Z,24.43
2019-01-21T10:15:27.089Z,24.10
2019-01-21T10:18:06.118Z,23.90
2019-01-21T10:20:56.516Z,24.27
2019-01-21T10:23:44.077Z,24.47
2019-01-21T10:26:22.987Z,24.37
2019-01-21T10:28:55.714Z,23.50
2019-01-21T10:31:42.533Z,23.70
2019-01-21T10:34:15.025Z,23.33
2019-01-21T10:37:10.739Z,23.57
2019-01-21T10:39:52.000Z,22.77
2019-01-21T10:42:42.646Z,24.73
2019-01-21T10:45:33.908Z,23.27
2019-01-21T10:48:15.018Z,22.77
2019-01-21T10:51:16.694Z,23.87
2019-01-21T10:54:01.001Z,22.93
2019-01-21T10:56:39.572Z,21.57
2019-01-21T10:59:35.394Z,20.13
2019-01-21T11:02:11.150Z,21.40
2019-01-21T11:05:00.847Z,18.87
2019-01-21T11:07:39.778Z,18.93
2019-01-21T11:10:27.364Z,18.00
2019-01-21T11:12:59.978Z,17.10
2019-01-21T11:15:35.741Z,17.57
2019-01-21T11:18:17.519Z,18.90
2019-01-21T11:21:04.923Z,17.67
2019-01-21T11:23:54.657Z,18.63
2019-01-21T11:26:47.283Z,17.67
2019-01-21T11:29:19.997Z,18.30
2019-01-21T11:32:01.557Z,18.27
2019-01-21T11:34:46.755Z,17.83
2019-01-21T11:37:16.605Z,16.53
2019-01-21T11:39:49.285Z,16.73
2019-01-21T11:42:24.514Z,17.93
2019-01-21T11:45:20.437Z,16.43
2019-01-21T11:47:50.179Z,16.57
2019-01-21T11:50:31.610Z,17.13
2019-01-21T11:53:10.337Z,16.10
2019-01-21T11:55:42.818Z,17.23
2019-01-21T11:58:34.127Z,15.93
2019-01-21T12:01:09.749Z,16.07
2019-01-21T12:03:58.183Z,15.10
2019-01-21T12:06:30.702Z,15.87
2019-01-21T12:09:06.560Z,15.70
2019-01-21T12:11:42.352Z,16.53
2019-01-21T12:14:20.990Z,16.30
2019-01-21T12:16:59.722Z,16.63
2019-01-21T12:20:05.636Z,17.03
2019-01-21T12:22:50.172Z,16.90
2019-01-21T12:25:25.658Z,17.50
2019-01-21T12:27:58.106Z,16.50
2019-01-21T12:30:27.846Z,18.37
2019-01-21T12:33:00.398Z,16.67
2019-01-21T12:35:30.128Z,17.90
2019-01-21T12:38:22.568Z,17.03
2019-01-21T12:41:13.604Z,17.67
2019-01-21T12:43:49.110Z,17.67
2019-01-21T12:46:21.796Z,16.63
2019-01-21T12:49:02.934Z,17.40
2019-01-21T12:51:38.777Z,16.57
2019-01-21T12:54:11.496Z,16.27
2019-01-21T12:57:00.432Z,15.90
2019-01-21T12:59:42.665Z,14.90
2019-01-21T13:02:12.397Z,14.63
2019-01-21T13:04:42.105Z,14.17
2019-01-21T13:07:23.904Z,15.00
2019-01-21T13:09:59.591Z,15.43
2019-01-21T13:12:38.181Z,15.10
2019-01-21T13:15:10.863Z,15.53
2019-01-21T13:17:40.615Z,15.30
2019-01-21T13:20:30.543Z,14.37
2019-01-21T13:23:03.303Z,14.43
2019-01-21T13:25:38.961Z,14.63
2019-01-21T13:28:14.178Z,14.23
2019-01-21T13:31:03.722Z,13.63
2019-01-21T13:34:07.332Z,14.03
2019-01-21T13:37:12.157Z,13.70
2019-01-21T13:39:54.177Z,13.60
2019-01-21T13:42:23.917Z,12.87
2019-01-21T13:45:14.154Z,13.97
2019-01-21T13:47:58.334Z,13.10
2019-01-21T13:50:37.300Z,13.47
2019-01-21T13:53:14.474Z,13.13
2019-01-21T13:55:59.000Z,13.70
2019-01-21T13:58:45.036Z,13.00
2019-01-21T14:01:32.915Z,13.77
2019-01-21T14:04:31.792Z,13.00
2019-01-21T14:07:04.276Z,12.80
2019-01-21T14:09:54.822Z,13.20
2019-01-21T14:12:34.011Z,13.00
2019-01-21T14:15:24.586Z,14.03
2019-01-21T14:17:54.316Z,12.77
2019-01-21T14:20:24.003Z,13.50
2019-01-21T14:22:59.925Z,15.50
2019-01-21T14:25:46.171Z,13.87
2019-01-21T14:28:43.193Z,13.80
2019-01-21T14:31:21.893Z,15.43
2019-01-21T14:33:51.623Z,14.20
2019-01-21T14:36:43.230Z,15.17
2019-01-21T14:39:22.105Z,15.03
2019-01-21T14:42:08.521Z,14.57
2019-01-21T14:44:47.031Z,15.57
2019-01-21T14:47:28.797Z,15.80
2019-01-21T14:50:16.371Z,15.23
2019-01-21T14:52:54.672Z,14.37
2019-01-21T14:55:27.191Z,15.27
2019-01-21T14:58:15.338Z,16.10
2019-01-21T15:00:53.781Z,15.40
2019-01-21T15:03:26.482Z,15.83
2019-01-21T15:06:08.259Z,15.43
2019-01-21T15:08:37.994Z,15.37
2019-01-21T15:11:25.884Z,15.90
2019-01-21T15:16:41.571Z,16.63
2019-01-21T15:19:14.291Z,15.43
2019-01-21T15:21:44.243Z,14.40
2019-01-21T15:24:13.957Z,15.10
2019-01-21T15:26:52.847Z,15.40
2019-01-21T15:29:31.381Z,14.70
2019-01-21T15:32:01.110Z,15.23
2019-01-21T15:34:33.892Z,15.60
2019-01-21T15:37:06.753Z,15.10
2019-01-21T15:39:53.437Z,15.17
2019-01-21T15:42:41.377Z,14.83
2019-01-21T15:45:14.134Z,14.23
2019-01-21T15:48:02.055Z,13.93
2019-01-21T15:50:37.898Z,15.60
2019-01-21T15:53:16.187Z,16.53
2019-01-21T15:55:57.543Z,17.17
2019-01-21T15:58:39.545Z,19.20
2019-01-21T16:01:20.906Z,21.87
2019-01-21T16:03:50.609Z,17.00
2019-01-21T16:06:38.395Z,17.67
2019-01-21T16:09:14.111Z,17.40
2019-01-21T16:11:56.417Z,20.17
2019-01-21T16:14:26.187Z,21.30
2019-01-21T16:17:08.113Z,18.77
2019-01-21T16:19:34.953Z,17.60
2019-01-21T16:22:07.658Z,18.17
2019-01-21T16:24:46.228Z,16.90
2019-01-21T16:27:25.192Z,17.17
2019-01-21T16:29:57.807Z,18.57
2019-01-21T16:32:25.528Z,18.40
2019-01-21T16:34:58.378Z,17.67
2019-01-21T16:37:36.991Z,17.83
2019-01-21T16:40:21.502Z,17.60
2019-01-21T16:42:47.468Z,18.57
2019-01-21T16:45:13.460Z,16.87
2019-01-21T16:47:39.370Z,17.53
2019-01-21T16:50:06.301Z,17.27
2019-01-21T16:52:32.269Z,18.47
2019-01-21T16:54:58.142Z,17.60
2019-01-21T16:57:24.185Z,17.80
2019-01-21T16:59:50.101Z,18.53
2019-01-21T17:02:16.045Z,18.07
2019-01-21T17:04:42.119Z,19.03
2019-01-21T17:07:08.157Z,19.13
2019-01-21T17:09:34.096Z,19.30
2019-01-21T17:11:59.989Z,19.23
2019-01-21T17:14:25.930Z,18.27
2019-01-21T17:16:51.978Z,20.73
2019-01-21T17:19:17.943Z,19.73
2019-01-21T17:21:43.974Z,19.63
2019-01-21T17:24:10.010Z,23.40
2019-01-21T17:26:35.943Z,24.47
2019-01-21T17:29:01.910Z,26.00
2019-01-21T17:31:27.810Z,25.00
2019-01-21T17:33:53.841Z,29.23
2019-01-21T17:36:19.835Z,26.67
2019-01-21T17:38:45.865Z,29.93
2019-01-21T17:41:11.894Z,25.43
2019-01-21T17:43:37.803Z,22.90
2019-01-21T17:46:03.692Z,22.43
2019-01-21T17:48:29.742Z,21.83
2019-01-21T17:50:55.633Z,21.67
2019-01-21T17:53:21.572Z,19.43
2019-01-21T17:55:47.630Z,22.07
2019-01-21T17:58:13.502Z,22.03
2019-01-21T18:00:39.578Z,21.07
2019-01-21T18:03:05.563Z,21.07
2019-01-21T18:05:31.470Z,21.60
2019-01-21T18:07:57.382Z,20.60
2019-01-21T18:10:23.270Z,20.93
2019-01-21T18:12:49.823Z,20.23
2019-01-21T18:15:15.858Z,20.43
2019-01-21T18:17:41.864Z,21.90
2019-01-21T18:20:13.863Z,21.57
2019-01-21T18:22:39.839Z,20.97
2019-01-21T18:25:07.718Z,21.13
2019-01-21T18:27:33.637Z,19.83
2019-01-21T18:29:59.570Z,20.20
2019-01-21T18:32:25.449Z,19.93
2019-01-21T18:34:51.462Z,19.67
2019-01-21T18:37:17.364Z,20.90
2019-01-21T18:39:43.687Z,19.53
2019-01-21T18:42:09.561Z,20.37
2019-01-21T18:44:35.603Z,19.90
2019-01-21T18:47:01.589Z,20.43
2019-01-21T18:49:27.511Z,20.60
2019-01-21T18:51:53.389Z,19.77
2019-01-21T18:54:19.375Z,19.87
2019-01-21T18:56:45.256Z,19.97
2019-01-21T18:59:11.135Z,19.93
2019-01-21T19:01:37.166Z,21.03
2019-01-21T19:04:03.051Z,19.63
2019-01-21T19:06:29.020Z,19.63
2019-01-21T19:08:54.915Z,20.47
2019-01-21T19:11:20.838Z,21.00
2019-01-21T19:13:46.717Z,20.33
2019-01-21T19:16:12.667Z,20.60
2019-01-21T19:18:38.608Z,19.97
2019-01-21T19:21:04.579Z,19.77
2019-01-21T19:23:30.478Z,19.47
2019-01-21T19:25:56.384Z,20.37
2019-01-21T19:28:22.278Z,19.97
2019-01-21T19:30:48.186Z,20.60
2019-01-21T19:33:14.104Z,19.60
2019-01-21T19:35:40.002Z,20.17
2019-01-21T19:38:05.926Z,20.37
2019-01-21T19:40:32.244Z,19.33
2019-01-21T19:42:58.241Z,19.93
2019-01-21T19:45:24.192Z,20.87
2019-01-21T19:47:50.085Z,21.17
2019-01-21T19:50:20.954Z,20.80
2019-01-21T19:52:46.849Z,19.30
2019-01-21T19:55:22.375Z,19.87
2019-01-21T19:57:48.265Z,19.10
2019-01-21T20:00:19.304Z,20.27
2019-01-21T20:02:45.221Z,20.00
2019-01-21T20:05:11.243Z,19.27
2019-01-21T20:07:37.245Z,20.60
2019-01-21T20:10:06.991Z,19.87
2019-01-21T20:12:32.910Z,19.23
2019-01-21T20:14:58.840Z,19.50
2019-01-21T20:17:24.833Z,20.63
2019-01-21T20:19:50.920Z,18.43
2019-01-21T20:22:16.853Z,20.20
2019-01-21T20:24:42.729Z,20.10
2019-01-21T20:27:08.653Z,19.40
2019-01-21T20:29:34.562Z,19.23
2019-01-21T20:32:00.473Z,20.37
2019-01-21T20:34:26.350Z,20.50
2019-01-21T20:36:52.275Z,19.90
2019-01-21T20:39:18.260Z,19.37
2019-01-21T20:41:44.196Z,19.30
2019-01-21T20:44:10.111Z,20.30
2019-01-21T20:46:36.017Z,19.73
2019-01-21T20:49:02.053Z,19.07
2019-01-21T20:51:27.954Z,19.00
2019-01-21T20:53:53.906Z,20.03
2019-01-21T20:56:19.842Z,19.70
2019-01-21T20:58:45.958Z,21.07
2019-01-21T21:01:13.305Z,20.23
2019-01-21T21:03:39.354Z,19.90
2019-01-21T21:06:05.275Z,20.53
2019-01-21T21:08:31.306Z,19.87
2019-01-21T21:10:57.425Z,20.33
2019-01-21T21:13:23.338Z,18.30
2019-01-21T21:15:49.263Z,20.20
2019-01-21T21:18:15.156Z,19.30
2019-01-21T21:20:41.088Z,19.70
2019-01-21T21:23:06.954Z,19.50
2019-01-21T21:25:32.878Z,20.00
2019-01-21T21:27:58.783Z,21.00
2019-01-21T21:30:27.681Z,19.73
2019-01-21T21:32:53.594Z,20.27
2019-01-21T21:35:19.775Z,19.17
2019-01-21T21:37:45.720Z,20.90
2019-01-21T21:40:14.011Z,19.87
2019-01-21T21:42:40.112Z,19.97
2019-01-21T21:45:08.895Z,19.97
2019-01-21T21:47:34.811Z,19.50
2019-01-21T21:50:00.689Z,20.87
2019-01-21T21:52:27.908Z,19.43
2019-01-21T21:54:53.988Z,19.80
2019-01-21T21:57:19.932Z,20.83
2019-01-21T21:59:45.827Z,20.00
2019-01-21T22:02:11.733Z,21.43
2019-01-21T22:04:37.645Z,20.40
2019-01-21T22:07:03.849Z,19.90
2019-01-21T22:09:29.733Z,20.43
2019-01-21T22:11:55.632Z,19.27
2019-01-21T22:14:21.527Z,20.20
2019-01-21T22:16:47.441Z,19.57
2019-01-21T22:19:13.362Z,20.77
2019-01-21T22:21:39.280Z,20.07
2019-01-21T22:24:05.648Z,20.30
2019-01-21T22:26:31.547Z,19.90
2019-01-21T22:28:57.452Z,20.97
2019-01-21T22:31:23.334Z,20.37
2019-01-21T22:33:49.234Z,20.67
2019-01-21T22:36:15.105Z,20.07
2019-01-21T22:38:41.062Z,21.43
2019-01-21T22:41:07.229Z,21.43
2019-01-21T22:43:37.916Z,21.33
2019-01-21T22:46:04.052Z,20.60
2019-01-21T22:48:29.930Z,21.07
2019-01-21T22:50:55.858Z,21.43
2019-01-21T22:53:21.731Z,21.27
2019-01-21T22:55:47.635Z,21.27
2019-01-21T22:58:13.537Z,21.50
2019-01-21T23:00:45.117Z,21.10
2019-01-21T23:03:11.759Z,20.37
2019-01-21T23:05:37.596Z,21.40
2019-01-21T23:08:03.610Z,21.87
2019-01-21T23:10:29.471Z,21.10
2019-01-21T23:12:55.385Z,22.57
2019-01-21T23:15:21.254Z,21.60
2019-01-21T23:17:47.192Z,21.87
2019-01-21T23:20:13.204Z,21.37
2019-01-21T23:22:39.043Z,22.30
2019-01-21T23:25:05.656Z,21.77
2019-01-21T23:27:31.529Z,22.90
2019-01-21T23:29:57.543Z,22.13
2019-01-21T23:32:23.420Z,22.27
2019-01-21T23:34:49.327Z,22.17
2019-01-21T23:37:15.184Z,20.67
2019-01-21T23:39:41.150Z,21.90
2019-01-21T23:42:07.056Z,22.47
2019-01-21T23:44:32.967Z,22.10
2019-01-21T23:46:59.154Z,22.43
2019-01-21T23:49:25.080Z,21.17
2019-01-21T23:51:50.986Z,21.33
2019-01-21T23:54:16.881Z,21.73
2019-01-21T23:56:42.797Z,21.13
2019-01-21T23:59:08.662Z,21.20
